Terminal Aerodrome Forecast
Issued by NWS

Home | Current Version | Previous Version | Text Only | Print | Product List | Glossary On
Versions: 1 2 3 4 5 6 7 8 9 10 11 12 13 14 15 16 17 18 19 20
401
FTUS42 KMLB 210543
TAFSFB
TAF
KSFB 210543Z 2106/2206 12005KT P6SM SCT015 SCT070
      TEMPO 2108/2112 3SM BR BKN015
     FM211500 12010KT P6SM SCT040
     FM220000 10006KT P6SM FEW030=

USA.gov is the U.S. government's official web portal to all federal, state and local government web resources and services.